sensor_id;sensor_type;location;lat;lon;timestamp;temperature;humidity
9772;DHT22;4925;52.588;13.370;2023-03-19T00:02:24;13.10;27.10
9772;DHT22;4925;52.588;13.370;2023-03-19T00:04:49;13.10;81.40
9772;DHT22;4925;52.588;13.370;2023-03-19T00:07:15;13.10;99.90
9772;DHT22;4925;52.588;13.370;2023-03-19T00:09:42;13.00;99.90
9772;DHT22;4925;52.588;13.370;2023-03-19T00:12:08;12.90;99.90
9772;DHT22;4925;52.588;13.370;2023-03-19T00:14:34;12.90;99.90
9772;DHT22;4925;52.588;13.370;2023-03-19T00:17:00;12.80;99.90
9772;DHT22;4925;52.588;13.370;2023-03-19T00:19:26;12.80;98.80
9772;DHT22;4925;52.588;13.370;2023-03-19T00:21:52;12.70;99.90
9772;DHT22;4925;52.588;13.370;2023-03-19T00:24:18;12.70;99.90
9772;DHT22;4925;52.588;13.370;2023-03-19T00:26:43;12.70;99.90
9772;DHT22;4925;52.588;13.370;2023-03-19T00:29:10;12.60;99.90
9772;DHT22;4925;52.588;13.370;2023-03-19T00:31:37;12.60;99.90
9772;DHT22;4925;52.588;13.370;2023-03-19T00:34:02;12.60;99.90
9772;DHT22;4925;52.588;13.370;2023-03-19T00:36:29;12.60;99.90
9772;DHT22;4925;52.588;13.370;2023-03-19T00:38:55;12.60;99.90
9772;DHT22;4925;52.588;13.370;2023-03-19T00:41:21;12.60;99.90
9772;DHT22;4925;52.588;13.370;2023-03-19T00:43:51;12.50;99.90
9772;DHT22;4925;52.588;13.370;2023-03-19T00:46:18;12.50;99.90
9772;DHT22;4925;52.588;13.370;2023-03-19T00:48:44;12.50;99.90
9772;DHT22;4925;52.588;13.370;2023-03-19T00:51:10;12.50;99.90
9772;DHT22;4925;52.588;13.370;2023-03-19T00:53:40;12.40;99.90
9772;DHT22;4925;52.588;13.370;2023-03-19T00:56:07;12.40;99.90
9772;DHT22;4925;52.588;13.370;2023-03-19T00:58:33;12.40;99.90
9772;DHT22;4925;52.588;13.370;2023-03-19T01:00:59;12.40;99.90
9772;DHT22;4925;52.588;13.370;2023-03-19T01:03:26;12.30;99.90
9772;DHT22;4925;52.588;13.370;2023-03-19T01:05:52;12.30;99.90
9772;DHT22;4925;52.588;13.370;2023-03-19T01:08:18;12.30;99.90
9772;DHT22;4925;52.588;13.370;2023-03-19T01:10:44;12.20;99.90
9772;DHT22;4925;52.588;13.370;2023-03-19T01:13:11;12.20;99.90
9772;DHT22;4925;52.588;13.370;2023-03-19T01:15:38;12.10;99.90
9772;DHT22;4925;52.588;13.370;2023-03-19T01:18:05;12.10;99.90
9772;DHT22;4925;52.588;13.370;2023-03-19T01:20:31;12.00;99.90
9772;DHT22;4925;52.588;13.370;2023-03-19T01:22:57;12.00;99.90
9772;DHT22;4925;52.588;13.370;2023-03-19T01:25:22;11.90;99.90
9772;DHT22;4925;52.588;13.370;2023-03-19T01:27:50;11.90;99.90
9772;DHT22;4925;52.588;13.370;2023-03-19T01:30:16;11.90;99.90
9772;DHT22;4925;52.588;13.370;2023-03-19T01:32:42;11.80;99.90
9772;DHT22;4925;52.588;13.370;2023-03-19T01:35:08;11.80;99.90
9772;DHT22;4925;52.588;13.370;2023-03-19T01:37:35;11.80;99.90
9772;DHT22;4925;52.588;13.370;2023-03-19T01:40:05;11.80;99.90
9772;DHT22;4925;52.588;13.370;2023-03-19T01:42:32;11.70;99.90
9772;DHT22;4925;52.588;13.370;2023-03-19T01:44:58;11.70;99.90
9772;DHT22;4925;52.588;13.370;2023-03-19T01:47:38;11.70;99.90
9772;DHT22;4925;52.588;13.370;2023-03-19T01:50:09;11.70;99.90
9772;DHT22;4925;52.588;13.370;2023-03-19T01:52:39;11.70;99.90
9772;DHT22;4925;52.588;13.370;2023-03-19T01:55:05;11.70;99.90
9772;DHT22;4925;52.588;13.370;2023-03-19T01:57:31;11.70;99.90
9772;DHT22;4925;52.588;13.370;2023-03-19T02:00:00;11.60;99.90
9772;DHT22;4925;52.588;13.370;2023-03-19T02:02:28;11.60;99.90
9772;DHT22;4925;52.588;13.370;2023-03-19T02:05:12;11.60;99.90
9772;DHT22;4925;52.588;13.370;2023-03-19T02:07:41;11.50;99.90
9772;DHT22;4925;52.588;13.370;2023-03-19T02:10:11;11.50;99.90
9772;DHT22;4925;52.588;13.370;2023-03-19T02:12:38;11.50;99.90
9772;DHT22;4925;52.588;13.370;2023-03-19T02:15:04;11.50;99.90
9772;DHT22;4925;52.588;13.370;2023-03-19T02:17:30;11.50;99.90
9772;DHT22;4925;52.588;13.370;2023-03-19T02:22:41;11.40;99.90
9772;DHT22;4925;52.588;13.370;2023-03-19T02:26:14;11.40;99.90
9772;DHT22;4925;52.588;13.370;2023-03-19T02:28:09;11.40;99.90
9772;DHT22;4925;52.588;13.370;2023-03-19T02:30:36;11.40;99.90
9772;DHT22;4925;52.588;13.370;2023-03-19T02:33:03;11.40;99.90
9772;DHT22;4925;52.588;13.370;2023-03-19T02:35:31;11.40;85.60
9772;DHT22;4925;52.588;13.370;2023-03-19T02:37:57;11.40;99.20
9772;DHT22;4925;52.588;13.370;2023-03-19T02:40:26;11.30;57.30
9772;DHT22;4925;52.588;13.370;2023-03-19T02:42:53;11.30;1.00
9772;DHT22;4925;52.588;13.370;2023-03-19T02:45:19;11.30;1.00
9772;DHT22;4925;52.588;13.370;2023-03-19T02:47:46;11.20;7.70
9772;DHT22;4925;52.588;13.370;2023-03-19T02:50:12;11.20;14.20
9772;DHT22;4925;52.588;13.370;2023-03-19T02:52:37;11.20;1.00
9772;DHT22;4925;52.588;13.370;2023-03-19T02:55:03;11.20;1.00
9772;DHT22;4925;52.588;13.370;2023-03-19T02:57:29;11.20;1.00
9772;DHT22;4925;52.588;13.370;2023-03-19T02:59:55;11.20;1.00
9772;DHT22;4925;52.588;13.370;2023-03-19T03:02:21;11.20;1.00
9772;DHT22;4925;52.588;13.370;2023-03-19T03:04:47;11.30;1.00
9772;DHT22;4925;52.588;13.370;2023-03-19T03:07:13;11.30;1.00
9772;DHT22;4925;52.588;13.370;2023-03-19T03:09:38;11.30;1.00
9772;DHT22;4925;52.588;13.370;2023-03-19T03:12:05;11.30;99.90
9772;DHT22;4925;52.588;13.370;2023-03-19T03:14:31;11.20;99.90
9772;DHT22;4925;52.588;13.370;2023-03-19T03:16:57;11.10;99.90
9772;DHT22;4925;52.588;13.370;2023-03-19T03:19:23;11.10;99.90
9772;DHT22;4925;52.588;13.370;2023-03-19T03:21:48;11.10;99.90
9772;DHT22;4925;52.588;13.370;2023-03-19T03:24:15;11.10;99.90
9772;DHT22;4925;52.588;13.370;2023-03-19T03:26:41;11.10;1.00
9772;DHT22;4925;52.588;13.370;2023-03-19T03:29:07;11.10;1.00
9772;DHT22;4925;52.588;13.370;2023-03-19T03:31:33;11.10;99.90
9772;DHT22;4925;52.588;13.370;2023-03-19T03:33:59;11.10;99.90
9772;DHT22;4925;52.588;13.370;2023-03-19T03:36:26;11.20;98.40
9772;DHT22;4925;52.588;13.370;2023-03-19T03:38:53;11.20;1.00
9772;DHT22;4925;52.588;13.370;2023-03-19T03:41:19;10.70;99.90
9772;DHT22;4925;52.588;13.370;2023-03-19T03:43:45;10.30;1.00
9772;DHT22;4925;52.588;13.370;2023-03-19T03:46:11;10.10;30.90
9772;DHT22;4925;52.588;13.370;2023-03-19T03:48:38;10.20;64.10
9772;DHT22;4925;52.588;13.370;2023-03-19T03:51:03;10.40;1.00
9772;DHT22;4925;52.588;13.370;2023-03-19T03:53:29;10.40;1.00
9772;DHT22;4925;52.588;13.370;2023-03-19T03:55:55;10.60;1.00
9772;DHT22;4925;52.588;13.370;2023-03-19T03:58:21;10.50;1.00
9772;DHT22;4925;52.588;13.370;2023-03-19T04:00:48;10.60;1.00
9772;DHT22;4925;52.588;13.370;2023-03-19T04:03:14;10.70;1.00
9772;DHT22;4925;52.588;13.370;2023-03-19T04:05:39;10.80;1.00
9772;DHT22;4925;52.588;13.370;2023-03-19T04:08:06;10.80;1.00
9772;DHT22;4925;52.588;13.370;2023-03-19T04:10:32;10.70;1.00
9772;DHT22;4925;52.588;13.370;2023-03-19T04:13:00;10.90;1.00
9772;DHT22;4925;52.588;13.370;2023-03-19T04:15:26;10.90;1.00
9772;DHT22;4925;52.588;13.370;2023-03-19T04:17:51;11.00;1.00
9772;DHT22;4925;52.588;13.370;2023-03-19T04:20:17;10.90;1.00
9772;DHT22;4925;52.588;13.370;2023-03-19T04:22:43;11.00;1.00
9772;DHT22;4925;52.588;13.370;2023-03-19T04:25:09;11.10;1.00
9772;DHT22;4925;52.588;13.370;2023-03-19T04:27:35;11.10;1.00
9772;DHT22;4925;52.588;13.370;2023-03-19T04:30:02;11.10;1.00
9772;DHT22;4925;52.588;13.370;2023-03-19T04:32:28;11.20;1.00
9772;DHT22;4925;52.588;13.370;2023-03-19T04:34:54;11.30;1.00
9772;DHT22;4925;52.588;13.370;2023-03-19T04:37:20;11.40;1.00
9772;DHT22;4925;52.588;13.370;2023-03-19T04:39:46;11.40;99.90
9772;DHT22;4925;52.588;13.370;2023-03-19T04:42:12;11.40;99.90
9772;DHT22;4925;52.588;13.370;2023-03-19T04:44:37;11.40;99.90
9772;DHT22;4925;52.588;13.370;2023-03-19T04:47:04;11.40;1.00
9772;DHT22;4925;52.588;13.370;2023-03-19T04:49:29;11.30;99.90
9772;DHT22;4925;52.588;13.370;2023-03-19T04:51:58;11.30;99.90
9772;DHT22;4925;52.588;13.370;2023-03-19T04:54:23;11.20;99.90
9772;DHT22;4925;52.588;13.370;2023-03-19T04:56:50;11.20;99.90
9772;DHT22;4925;52.588;13.370;2023-03-19T04:59:17;11.10;1.00
9772;DHT22;4925;52.588;13.370;2023-03-19T05:01:43;11.10;99.90
9772;DHT22;4925;52.588;13.370;2023-03-19T05:04:08;11.20;99.90
9772;DHT22;4925;52.588;13.370;2023-03-19T05:06:35;11.40;1.00
9772;DHT22;4925;52.588;13.370;2023-03-19T05:09:02;11.40;1.00
9772;DHT22;4925;52.588;13.370;2023-03-19T05:11:29;11.40;1.00
9772;DHT22;4925;52.588;13.370;2023-03-19T05:13:54;11.20;99.90
9772;DHT22;4925;52.588;13.370;2023-03-19T05:16:20;11.10;1.00
9772;DHT22;4925;52.588;13.370;2023-03-19T05:18:46;11.40;1.00
9772;DHT22;4925;52.588;13.370;2023-03-19T05:21:12;11.40;1.00
9772;DHT22;4925;52.588;13.370;2023-03-19T05:23:39;11.50;1.00
9772;DHT22;4925;52.588;13.370;2023-03-19T05:26:04;11.60;99.90
9772;DHT22;4925;52.588;13.370;2023-03-19T05:28:31;11.70;1.00
9772;DHT22;4925;52.588;13.370;2023-03-19T05:30:57;11.70;99.90
9772;DHT22;4925;52.588;13.370;2023-03-19T05:33:23;11.70;1.00
9772;DHT22;4925;52.588;13.370;2023-03-19T05:35:49;11.60;99.90
9772;DHT22;4925;52.588;13.370;2023-03-19T05:38:16;11.10;1.00
9772;DHT22;4925;52.588;13.370;2023-03-19T05:40:42;10.90;1.00
9772;DHT22;4925;52.588;13.370;2023-03-19T05:43:08;11.00;1.00
9772;DHT22;4925;52.588;13.370;2023-03-19T05:45:35;11.20;1.00
9772;DHT22;4925;52.588;13.370;2023-03-19T05:48:04;11.10;1.00
9772;DHT22;4925;52.588;13.370;2023-03-19T05:50:30;11.10;1.00
9772;DHT22;4925;52.588;13.370;2023-03-19T05:52:57;11.10;1.00
9772;DHT22;4925;52.588;13.370;2023-03-19T05:55:23;11.10;1.00
9772;DHT22;4925;52.588;13.370;2023-03-19T05:57:49;11.00;1.00
9772;DHT22;4925;52.588;13.370;2023-03-19T06:00:16;10.90;1.00
9772;DHT22;4925;52.588;13.370;2023-03-19T06:02:42;10.80;1.00
9772;DHT22;4925;52.588;13.370;2023-03-19T06:05:08;10.70;1.00
9772;DHT22;4925;52.588;13.370;2023-03-19T06:07:35;10.60;1.00
9772;DHT22;4925;52.588;13.370;2023-03-19T06:10:01;10.60;1.00
9772;DHT22;4925;52.588;13.370;2023-03-19T06:12:27;10.50;1.00
9772;DHT22;4925;52.588;13.370;2023-03-19T06:14:53;10.50;19.50
9772;DHT22;4925;52.588;13.370;2023-03-19T06:17:18;10.50;32.60
9772;DHT22;4925;52.588;13.370;2023-03-19T06:19:44;10.50;56.50
9772;DHT22;4925;52.588;13.370;2023-03-19T06:22:10;10.50;97.90
9772;DHT22;4925;52.588;13.370;2023-03-19T06:24:36;10.60;99.90
9772;DHT22;4925;52.588;13.370;2023-03-19T06:27:02;10.70;91.60
9772;DHT22;4925;52.588;13.370;2023-03-19T06:29:28;10.70;83.80
9772;DHT22;4925;52.588;13.370;2023-03-19T06:31:54;10.80;97.20
9772;DHT22;4925;52.588;13.370;2023-03-19T06:34:19;10.90;90.90
9772;DHT22;4925;52.588;13.370;2023-03-19T06:36:45;10.90;91.20
9772;DHT22;4925;52.588;13.370;2023-03-19T06:39:11;11.00;93.80
9772;DHT22;4925;52.588;13.370;2023-03-19T06:41:37;11.10;95.00
9772;DHT22;4925;52.588;13.370;2023-03-19T06:44:03;11.20;95.60
9772;DHT22;4925;52.588;13.370;2023-03-19T06:46:29;11.30;94.70
9772;DHT22;4925;52.588;13.370;2023-03-19T06:48:55;11.50;99.90
9772;DHT22;4925;52.588;13.370;2023-03-19T06:51:20;11.70;99.90
9772;DHT22;4925;52.588;13.370;2023-03-19T06:53:46;11.30;99.90
9772;DHT22;4925;52.588;13.370;2023-03-19T06:56:12;10.80;99.90
9772;DHT22;4925;52.588;13.370;2023-03-19T06:58:37;10.50;99.90
9772;DHT22;4925;52.588;13.370;2023-03-19T07:01:03;10.50;99.90
9772;DHT22;4925;52.588;13.370;2023-03-19T07:03:29;10.80;99.90
9772;DHT22;4925;52.588;13.370;2023-03-19T07:05:55;10.90;99.90
9772;DHT22;4925;52.588;13.370;2023-03-19T07:08:21;11.00;99.90
9772;DHT22;4925;52.588;13.370;2023-03-19T07:10:47;10.90;99.90
9772;DHT22;4925;52.588;13.370;2023-03-19T07:13:12;10.70;99.90
9772;DHT22;4925;52.588;13.370;2023-03-19T07:15:38;10.40;99.90
9772;DHT22;4925;52.588;13.370;2023-03-19T07:18:04;10.30;99.90
9772;DHT22;4925;52.588;13.370;2023-03-19T07:20:30;10.30;99.90
9772;DHT22;4925;52.588;13.370;2023-03-19T07:22:56;10.40;99.90
9772;DHT22;4925;52.588;13.370;2023-03-19T07:25:22;10.70;99.90
9772;DHT22;4925;52.588;13.370;2023-03-19T07:27:47;10.90;99.90
9772;DHT22;4925;52.588;13.370;2023-03-19T07:32:39;10.70;99.90
9772;DHT22;4925;52.588;13.370;2023-03-19T07:35:06;10.50;99.90
9772;DHT22;4925;52.588;13.370;2023-03-19T07:37:32;10.40;99.90
9772;DHT22;4925;52.588;13.370;2023-03-19T07:39:58;10.60;99.90
9772;DHT22;4925;52.588;13.370;2023-03-19T07:42:24;10.70;99.90
9772;DHT22;4925;52.588;13.370;2023-03-19T07:44:49;10.80;99.90
9772;DHT22;4925;52.588;13.370;2023-03-19T07:47:15;10.80;99.90
9772;DHT22;4925;52.588;13.370;2023-03-19T07:49:41;10.80;99.90
9772;DHT22;4925;52.588;13.370;2023-03-19T07:52:07;10.80;99.90
9772;DHT22;4925;52.588;13.370;2023-03-19T07:54:33;10.80;99.90
9772;DHT22;4925;52.588;13.370;2023-03-19T07:56:58;10.90;99.90
9772;DHT22;4925;52.588;13.370;2023-03-19T07:59:24;10.90;99.90
9772;DHT22;4925;52.588;13.370;2023-03-19T08:01:50;11.00;99.90
9772;DHT22;4925;52.588;13.370;2023-03-19T08:04:15;11.00;99.90
9772;DHT22;4925;52.588;13.370;2023-03-19T08:06:41;11.00;99.90
9772;DHT22;4925;52.588;13.370;2023-03-19T08:09:07;11.10;99.90
9772;DHT22;4925;52.588;13.370;2023-03-19T08:11:34;10.90;99.90
9772;DHT22;4925;52.588;13.370;2023-03-19T08:14:00;10.80;99.90
9772;DHT22;4925;52.588;13.370;2023-03-19T08:16:26;10.80;99.90
9772;DHT22;4925;52.588;13.370;2023-03-19T08:18:52;11.00;99.90
9772;DHT22;4925;52.588;13.370;2023-03-19T08:21:17;11.00;99.90
9772;DHT22;4925;52.588;13.370;2023-03-19T08:23:43;10.90;99.90
9772;DHT22;4925;52.588;13.370;2023-03-19T08:26:09;11.00;99.90
9772;DHT22;4925;52.588;13.370;2023-03-19T08:28:34;11.00;99.90
9772;DHT22;4925;52.588;13.370;2023-03-19T08:31:09;10.90;99.90
9772;DHT22;4925;52.588;13.370;2023-03-19T08:33:35;10.90;99.90
9772;DHT22;4925;52.588;13.370;2023-03-19T08:36:10;10.90;99.90
9772;DHT22;4925;52.588;13.370;2023-03-19T08:38:37;11.00;99.90
9772;DHT22;4925;52.588;13.370;2023-03-19T08:41:04;11.10;99.90
9772;DHT22;4925;52.588;13.370;2023-03-19T08:43:33;11.00;99.90
9772;DHT22;4925;52.588;13.370;2023-03-19T08:46:03;10.80;99.90
9772;DHT22;4925;52.588;13.370;2023-03-19T08:48:29;10.70;99.90
9772;DHT22;4925;52.588;13.370;2023-03-19T08:51:00;10.70;99.90
9772;DHT22;4925;52.588;13.370;2023-03-19T08:53:27;10.80;99.90
9772;DHT22;4925;52.588;13.370;2023-03-19T08:55:55;10.80;99.90
9772;DHT22;4925;52.588;13.370;2023-03-19T08:58:21;10.80;99.90
9772;DHT22;4925;52.588;13.370;2023-03-19T09:00:47;10.60;99.90
9772;DHT22;4925;52.588;13.370;2023-03-19T09:03:14;10.50;99.90
9772;DHT22;4925;52.588;13.370;2023-03-19T09:05:40;10.60;99.90
9772;DHT22;4925;52.588;13.370;2023-03-19T09:08:06;10.40;99.90
9772;DHT22;4925;52.588;13.370;2023-03-19T09:10:31;10.40;99.90
9772;DHT22;4925;52.588;13.370;2023-03-19T09:12:57;10.30;99.90
9772;DHT22;4925;52.588;13.370;2023-03-19T09:15:23;10.40;99.90
9772;DHT22;4925;52.588;13.370;2023-03-19T09:17:49;10.50;99.90
9772;DHT22;4925;52.588;13.370;2023-03-19T09:20:15;10.60;99.90
9772;DHT22;4925;52.588;13.370;2023-03-19T09:22:41;10.80;99.90
9772;DHT22;4925;52.588;13.370;2023-03-19T09:25:07;10.90;99.90
9772;DHT22;4925;52.588;13.370;2023-03-19T09:27:33;11.10;99.90
9772;DHT22;4925;52.588;13.370;2023-03-19T09:29:59;11.50;99.90
9772;DHT22;4925;52.588;13.370;2023-03-19T09:32:24;11.80;99.90
9772;DHT22;4925;52.588;13.370;2023-03-19T09:34:50;12.20;99.90
9772;DHT22;4925;52.588;13.370;2023-03-19T09:37:16;12.40;99.90
9772;DHT22;4925;52.588;13.370;2023-03-19T09:39:42;12.70;99.90
9772;DHT22;4925;52.588;13.370;2023-03-19T09:42:26;12.90;99.90
9772;DHT22;4925;52.588;13.370;2023-03-19T09:44:53;13.10;99.90
9772;DHT22;4925;52.588;13.370;2023-03-19T09:47:28;13.40;99.90
9772;DHT22;4925;52.588;13.370;2023-03-19T09:50:01;13.70;99.90
9772;DHT22;4925;52.588;13.370;2023-03-19T09:55:44;13.90;99.90
9772;DHT22;4925;52.588;13.370;2023-03-19T09:58:14;13.90;99.90
9772;DHT22;4925;52.588;13.370;2023-03-19T10:00:42;13.90;99.90
9772;DHT22;4925;52.588;13.370;2023-03-19T10:16:50;14.80;59.00
9772;DHT22;4925;52.588;13.370;2023-03-19T10:19:24;14.70;64.70
9772;DHT22;4925;52.588;13.370;2023-03-19T10:22:04;14.80;57.40
9772;DHT22;4925;52.588;13.370;2023-03-19T10:24:35;14.90;55.00
9772;DHT22;4925;52.588;13.370;2023-03-19T10:27:12;14.80;43.60
9772;DHT22;4925;52.588;13.370;2023-03-19T10:29:38;14.90;64.30
9772;DHT22;4925;52.588;13.370;2023-03-19T10:32:20;14.60;62.40
9772;DHT22;4925;52.588;13.370;2023-03-19T10:34:52;14.10;99.90
9772;DHT22;4925;52.588;13.370;2023-03-19T10:37:19;13.80;99.90
9772;DHT22;4925;52.588;13.370;2023-03-19T10:39:47;13.80;99.90
9772;DHT22;4925;52.588;13.370;2023-03-19T10:45:32;14.10;99.90
9772;DHT22;4925;52.588;13.370;2023-03-19T10:48:00;14.20;99.90
9772;DHT22;4925;52.588;13.370;2023-03-19T10:55:38;14.00;99.90
9772;DHT22;4925;52.588;13.370;2023-03-19T10:58:19;14.10;99.90
9772;DHT22;4925;52.588;13.370;2023-03-19T11:00:48;14.20;99.90
9772;DHT22;4925;52.588;13.370;2023-03-19T11:03:34;14.10;99.90
9772;DHT22;4925;52.588;13.370;2023-03-19T11:06:33;14.00;99.90
9772;DHT22;4925;52.588;13.370;2023-03-19T11:09:02;14.20;99.90
9772;DHT22;4925;52.588;13.370;2023-03-19T11:11:45;14.30;99.90
9772;DHT22;4925;52.588;13.370;2023-03-19T11:14:35;14.50;99.90
9772;DHT22;4925;52.588;13.370;2023-03-19T11:19:49;14.60;95.20
9772;DHT22;4925;52.588;13.370;2023-03-19T11:22:29;14.70;99.90
9772;DHT22;4925;52.588;13.370;2023-03-19T11:25:14;14.60;99.20
9772;DHT22;4925;52.588;13.370;2023-03-19T11:27:43;14.90;99.90
9772;DHT22;4925;52.588;13.370;2023-03-19T11:30:18;14.50;91.00
9772;DHT22;4925;52.588;13.370;2023-03-19T11:33:14;14.50;95.50
9772;DHT22;4925;52.588;13.370;2023-03-19T11:44:21;14.60;95.90
9772;DHT22;4925;52.588;13.370;2023-03-19T11:52:19;14.30;99.90
9772;DHT22;4925;52.588;13.370;2023-03-19T12:00:39;14.40;75.70
9772;DHT22;4925;52.588;13.370;2023-03-19T12:09:02;14.90;10.20
9772;DHT22;4925;52.588;13.370;2023-03-19T12:11:41;15.10;1.00
9772;DHT22;4925;52.588;13.370;2023-03-19T12:19:33;15.40;1.00
9772;DHT22;4925;52.588;13.370;2023-03-19T12:28:32;15.90;1.00
9772;DHT22;4925;52.588;13.370;2023-03-19T12:39:34;16.40;1.00
9772;DHT22;4925;52.588;13.370;2023-03-19T12:42:03;16.60;1.00
9772;DHT22;4925;52.588;13.370;2023-03-19T12:44:39;16.80;1.00
9772;DHT22;4925;52.588;13.370;2023-03-19T12:47:23;16.90;99.90
9772;DHT22;4925;52.588;13.370;2023-03-19T12:49:59;17.00;99.90
9772;DHT22;4925;52.588;13.370;2023-03-19T12:52:37;17.30;99.90
9772;DHT22;4925;52.588;13.370;2023-03-19T12:55:14;17.30;59.40
9772;DHT22;4925;52.588;13.370;2023-03-19T13:02:51;18.00;1.00
9772;DHT22;4925;52.588;13.370;2023-03-19T13:08:13;18.70;99.90
9772;DHT22;4925;52.588;13.370;2023-03-19T13:10:41;18.90;1.00
9772;DHT22;4925;52.588;13.370;2023-03-19T13:13:26;19.30;99.90
9772;DHT22;4925;52.588;13.370;2023-03-19T13:15:57;19.40;99.90
9772;DHT22;4925;52.588;13.370;2023-03-19T13:23:39;19.90;7.40
9772;DHT22;4925;52.588;13.370;2023-03-19T13:26:08;19.60;99.90
9772;DHT22;4925;52.588;13.370;2023-03-19T13:28:36;19.50;99.90
9772;DHT22;4925;52.588;13.370;2023-03-19T13:31:24;19.30;1.00
9772;DHT22;4925;52.588;13.370;2023-03-19T13:33:58;19.30;1.00
9772;DHT22;4925;52.588;13.370;2023-03-19T13:36:26;18.90;1.50
9772;DHT22;4925;52.588;13.370;2023-03-19T13:38:52;19.00;99.90
9772;DHT22;4925;52.588;13.370;2023-03-19T13:46:47;18.90;38.20
9772;DHT22;4925;52.588;13.370;2023-03-19T13:49:23;19.20;99.90
9772;DHT22;4925;52.588;13.370;2023-03-19T13:52:00;19.60;1.00
9772;DHT22;4925;52.588;13.370;2023-03-19T13:54:38;20.00;1.00
9772;DHT22;4925;52.588;13.370;2023-03-19T13:57:16;20.00;1.00
9772;DHT22;4925;52.588;13.370;2023-03-19T13:59:47;20.10;99.90
9772;DHT22;4925;52.588;13.370;2023-03-19T14:07:50;19.80;1.00
9772;DHT22;4925;52.588;13.370;2023-03-19T14:10:21;19.60;1.00
9772;DHT22;4925;52.588;13.370;2023-03-19T14:12:48;19.60;99.90
9772;DHT22;4925;52.588;13.370;2023-03-19T14:15:23;19.60;1.00
9772;DHT22;4925;52.588;13.370;2023-03-19T14:26:03;19.30;99.90
9772;DHT22;4925;52.588;13.370;2023-03-19T14:31:11;19.40;1.00
9772;DHT22;4925;52.588;13.370;2023-03-19T14:33:49;19.50;1.00
9772;DHT22;4925;52.588;13.370;2023-03-19T14:36:18;19.50;35.40
9772;DHT22;4925;52.588;13.370;2023-03-19T14:39:02;18.90;99.90
9772;DHT22;4925;52.588;13.370;2023-03-19T14:41:35;19.30;1.00
9772;DHT22;4925;52.588;13.370;2023-03-19T14:55:15;19.70;99.90
9772;DHT22;4925;52.588;13.370;2023-03-19T14:57:41;19.90;99.90
9772;DHT22;4925;52.588;13.370;2023-03-19T15:00:13;20.20;1.00
9772;DHT22;4925;52.588;13.370;2023-03-19T15:02:40;20.20;1.00
9772;DHT22;4925;52.588;13.370;2023-03-19T15:05:11;20.30;1.00
9772;DHT22;4925;52.588;13.370;2023-03-19T15:07:49;20.70;99.90
9772;DHT22;4925;52.588;13.370;2023-03-19T15:10:19;20.70;99.90
9772;DHT22;4925;52.588;13.370;2023-03-19T15:15:38;20.90;1.00
9772;DHT22;4925;52.588;13.370;2023-03-19T15:18:08;20.50;1.00
9772;DHT22;4925;52.588;13.370;2023-03-19T15:20:50;20.60;24.80
9772;DHT22;4925;52.588;13.370;2023-03-19T15:23:20;20.70;99.90
9772;DHT22;4925;52.588;13.370;2023-03-19T15:25:51;20.80;99.90
9772;DHT22;4925;52.588;13.370;2023-03-19T15:28:21;20.10;99.90
9772;DHT22;4925;52.588;13.370;2023-03-19T15:30:57;19.70;1.00
9772;DHT22;4925;52.588;13.370;2023-03-19T15:33:31;19.50;1.00
9772;DHT22;4925;52.588;13.370;2023-03-19T15:36:21;19.50;99.90
9772;DHT22;4925;52.588;13.370;2023-03-19T15:38:55;19.50;1.00
9772;DHT22;4925;52.588;13.370;2023-03-19T15:41:25;19.50;99.90
9772;DHT22;4925;52.588;13.370;2023-03-19T15:43:52;19.40;1.00
9772;DHT22;4925;52.588;13.370;2023-03-19T15:46:23;19.40;1.00
9772;DHT22;4925;52.588;13.370;2023-03-19T15:48:55;19.20;1.00
9772;DHT22;4925;52.588;13.370;2023-03-19T15:51:24;19.20;1.00
9772;DHT22;4925;52.588;13.370;2023-03-19T15:53:51;19.30;1.00
9772;DHT22;4925;52.588;13.370;2023-03-19T15:56:18;19.20;99.90
9772;DHT22;4925;52.588;13.370;2023-03-19T15:58:47;19.00;1.00
9772;DHT22;4925;52.588;13.370;2023-03-19T16:01:15;19.10;1.00
9772;DHT22;4925;52.588;13.370;2023-03-19T16:03:58;19.00;1.00
9772;DHT22;4925;52.588;13.370;2023-03-19T16:06:30;19.10;1.00
9772;DHT22;4925;52.588;13.370;2023-03-19T16:11:42;18.70;1.00
9772;DHT22;4925;52.588;13.370;2023-03-19T16:17:08;18.90;1.00
9772;DHT22;4925;52.588;13.370;2023-03-19T16:19:37;18.90;1.00
9772;DHT22;4925;52.588;13.370;2023-03-19T16:22:15;19.00;1.00
9772;DHT22;4925;52.588;13.370;2023-03-19T16:24:45;18.80;1.00
9772;DHT22;4925;52.588;13.370;2023-03-19T16:27:14;18.70;1.00
9772;DHT22;4925;52.588;13.370;2023-03-19T16:29:46;18.90;1.00
9772;DHT22;4925;52.588;13.370;2023-03-19T16:32:19;18.80;1.00
9772;DHT22;4925;52.588;13.370;2023-03-19T16:34:50;18.80;87.10
9772;DHT22;4925;52.588;13.370;2023-03-19T16:37:27;18.90;99.90
9772;DHT22;4925;52.588;13.370;2023-03-19T16:39:58;19.00;99.90
9772;DHT22;4925;52.588;13.370;2023-03-19T16:45:02;19.00;99.90
9772;DHT22;4925;52.588;13.370;2023-03-19T16:47:42;18.90;1.00
9772;DHT22;4925;52.588;13.370;2023-03-19T16:50:08;18.90;1.00
9772;DHT22;4925;52.588;13.370;2023-03-19T16:52:35;18.90;2.50
9772;DHT22;4925;52.588;13.370;2023-03-19T16:55:02;18.80;3.00
9772;DHT22;4925;52.588;13.370;2023-03-19T16:57:28;18.90;99.90
9772;DHT22;4925;52.588;13.370;2023-03-19T16:59:54;18.80;99.90
9772;DHT22;4925;52.588;13.370;2023-03-19T17:02:20;18.80;99.90
9772;DHT22;4925;52.588;13.370;2023-03-19T17:04:47;18.70;99.90
9772;DHT22;4925;52.588;13.370;2023-03-19T17:07:12;18.40;99.90
9772;DHT22;4925;52.588;13.370;2023-03-19T17:09:38;18.40;99.90
9772;DHT22;4925;52.588;13.370;2023-03-19T17:12:06;18.40;1.00
9772;DHT22;4925;52.588;13.370;2023-03-19T17:14:33;18.40;48.80
9772;DHT22;4925;52.588;13.370;2023-03-19T17:16:59;18.40;1.00
9772;DHT22;4925;52.588;13.370;2023-03-19T17:19:34;18.40;99.90
9772;DHT22;4925;52.588;13.370;2023-03-19T17:22:00;18.40;99.90
9772;DHT22;4925;52.588;13.370;2023-03-19T17:24:31;18.30;99.90
9772;DHT22;4925;52.588;13.370;2023-03-19T17:27:00;18.30;99.90
9772;DHT22;4925;52.588;13.370;2023-03-19T17:29:26;18.20;99.90
9772;DHT22;4925;52.588;13.370;2023-03-19T17:31:53;18.10;99.90
9772;DHT22;4925;52.588;13.370;2023-03-19T17:34:24;18.00;99.90
9772;DHT22;4925;52.588;13.370;2023-03-19T17:36:56;17.90;67.90
9772;DHT22;4925;52.588;13.370;2023-03-19T17:39:23;17.80;1.00
9772;DHT22;4925;52.588;13.370;2023-03-19T17:41:49;17.80;99.90
9772;DHT22;4925;52.588;13.370;2023-03-19T17:44:15;17.70;1.00
9772;DHT22;4925;52.588;13.370;2023-03-19T17:46:43;17.60;99.90
9772;DHT22;4925;52.588;13.370;2023-03-19T17:49:29;17.50;99.90
9772;DHT22;4925;52.588;13.370;2023-03-19T17:51:57;17.40;99.90
9772;DHT22;4925;52.588;13.370;2023-03-19T17:54:23;17.30;99.90
9772;DHT22;4925;52.588;13.370;2023-03-19T17:56:51;17.10;99.90
9772;DHT22;4925;52.588;13.370;2023-03-19T17:59:17;17.00;99.90
9772;DHT22;4925;52.588;13.370;2023-03-19T18:01:43;16.90;99.90
9772;DHT22;4925;52.588;13.370;2023-03-19T18:04:15;16.80;99.90
9772;DHT22;4925;52.588;13.370;2023-03-19T18:06:47;16.60;99.90
9772;DHT22;4925;52.588;13.370;2023-03-19T18:09:19;16.30;23.30
9772;DHT22;4925;52.588;13.370;2023-03-19T18:11:45;16.10;1.00
9772;DHT22;4925;52.588;13.370;2023-03-19T18:14:11;16.00;1.00
9772;DHT22;4925;52.588;13.370;2023-03-19T18:16:36;16.10;1.00